sensor_id;sensor_type;location;lat;lon;timestamp;pressure;altitude;pressure_sealevel;temperature;humidity
75231;BME280;63814;50.118;8.714;2022-12-08T00:01:49;99861.00;;;2.28;81.93
75231;BME280;63814;50.118;8.714;2022-12-08T00:04:15;99856.72;;;2.27;82.19
75231;BME280;63814;50.118;8.714;2022-12-08T00:06:43;99849.78;;;2.29;82.00
75231;BME280;63814;50.118;8.714;2022-12-08T00:09:30;99842.97;;;2.27;81.86
75231;BME280;63814;50.118;8.714;2022-12-08T00:11:58;99845.63;;;2.24;82.46
75231;BME280;63814;50.118;8.714;2022-12-08T00:14:27;99847.28;;;2.26;82.35
75231;BME280;63814;50.118;8.714;2022-12-08T00:16:55;99841.91;;;2.34;81.92
75231;BME280;63814;50.118;8.714;2022-12-08T00:19:22;99838.81;;;2.21;82.06
75231;BME280;63814;50.118;8.714;2022-12-08T00:21:50;99842.06;;;2.28;81.76
75231;BME280;63814;50.118;8.714;2022-12-08T00:24:17;99832.69;;;2.24;82.41
75231;BME280;63814;50.118;8.714;2022-12-08T00:26:44;99839.25;;;2.36;82.15
75231;BME280;63814;50.118;8.714;2022-12-08T00:29:11;99828.97;;;2.34;81.86
75231;BME280;63814;50.118;8.714;2022-12-08T00:31:38;99834.03;;;2.37;81.81
75231;BME280;63814;50.118;8.714;2022-12-08T00:34:05;99831.22;;;2.45;81.40
75231;BME280;63814;50.118;8.714;2022-12-08T00:36:32;99834.50;;;2.50;81.28
75231;BME280;63814;50.118;8.714;2022-12-08T00:39:00;99836.28;;;2.48;81.27
75231;BME280;63814;50.118;8.714;2022-12-08T00:41:27;99831.34;;;2.40;81.90
75231;BME280;63814;50.118;8.714;2022-12-08T00:44:12;99826.22;;;2.39;81.62
75231;BME280;63814;50.118;8.714;2022-12-08T00:46:40;99829.31;;;2.50;81.06
75231;BME280;63814;50.118;8.714;2022-12-08T00:49:07;99826.88;;;2.45;81.19
75231;BME280;63814;50.118;8.714;2022-12-08T00:51:33;99825.91;;;2.50;81.19
75231;BME280;63814;50.118;8.714;2022-12-08T00:54:01;99824.31;;;2.44;81.48
75231;BME280;63814;50.118;8.714;2022-12-08T00:56:28;99824.59;;;2.35;81.56
75231;BME280;63814;50.118;8.714;2022-12-08T00:58:55;99799.09;;;2.22;81.88
75231;BME280;63814;50.118;8.714;2022-12-08T01:01:21;99820.38;;;2.32;82.03
75231;BME280;63814;50.118;8.714;2022-12-08T01:03:48;99817.63;;;2.37;81.63
75231;BME280;63814;50.118;8.714;2022-12-08T01:06:14;99820.94;;;2.42;81.63
75231;BME280;63814;50.118;8.714;2022-12-08T01:08:41;99815.13;;;2.35;82.05
75231;BME280;63814;50.118;8.714;2022-12-08T01:11:11;99810.09;;;2.30;81.66
75231;BME280;63814;50.118;8.714;2022-12-08T01:13:39;99814.44;;;2.28;82.04
75231;BME280;63814;50.118;8.714;2022-12-08T01:16:06;99815.16;;;2.34;81.95
75231;BME280;63814;50.118;8.714;2022-12-08T01:18:33;99813.31;;;2.37;81.90
75231;BME280;63814;50.118;8.714;2022-12-08T01:21:03;99816.78;;;2.38;81.57
75231;BME280;63814;50.118;8.714;2022-12-08T01:23:31;99810.09;;;2.30;82.00
75231;BME280;63814;50.118;8.714;2022-12-08T01:26:01;99805.78;;;2.29;82.07
75231;BME280;63814;50.118;8.714;2022-12-08T01:28:30;99804.09;;;2.28;82.43
75231;BME280;63814;50.118;8.714;2022-12-08T01:30:57;99814.25;;;2.35;82.11
75231;BME280;63814;50.118;8.714;2022-12-08T01:33:25;99796.41;;;2.27;82.31
75231;BME280;63814;50.118;8.714;2022-12-08T01:35:52;99809.84;;;2.38;81.94
75231;BME280;63814;50.118;8.714;2022-12-08T01:38:19;99794.34;;;2.37;82.47
75231;BME280;63814;50.118;8.714;2022-12-08T01:40:47;99788.72;;;2.24;82.24
75231;BME280;63814;50.118;8.714;2022-12-08T01:43:15;99796.88;;;2.40;81.97
75231;BME280;63814;50.118;8.714;2022-12-08T01:45:43;99793.38;;;2.41;82.07
75231;BME280;63814;50.118;8.714;2022-12-08T01:48:13;99796.88;;;2.40;82.15
75231;BME280;63814;50.118;8.714;2022-12-08T01:50:43;99798.44;;;2.44;82.01
75231;BME280;63814;50.118;8.714;2022-12-08T01:53:14;99784.63;;;2.45;81.58
75231;BME280;63814;50.118;8.714;2022-12-08T01:55:47;99794.25;;;2.41;82.24
75231;BME280;63814;50.118;8.714;2022-12-08T01:58:18;99785.38;;;2.49;81.94
75231;BME280;63814;50.118;8.714;2022-12-08T02:00:48;99785.31;;;2.50;81.88
75231;BME280;63814;50.118;8.714;2022-12-08T02:03:19;99781.81;;;2.51;82.11
75231;BME280;63814;50.118;8.714;2022-12-08T02:05:47;99779.25;;;2.51;81.82
75231;BME280;63814;50.118;8.714;2022-12-08T02:08:14;99777.50;;;2.52;81.82
75231;BME280;63814;50.118;8.714;2022-12-08T02:10:42;99779.31;;;2.50;82.01
75231;BME280;63814;50.118;8.714;2022-12-08T02:13:10;99763.81;;;2.48;82.04
75231;BME280;63814;50.118;8.714;2022-12-08T02:15:46;99777.47;;;2.53;82.08
75231;BME280;63814;50.118;8.714;2022-12-08T02:18:28;99764.28;;;2.61;81.52
75231;BME280;63814;50.118;8.714;2022-12-08T02:21:03;99768.66;;;2.59;81.62
75231;BME280;63814;50.118;8.714;2022-12-08T02:23:36;99769.56;;;2.58;81.95
75231;BME280;63814;50.118;8.714;2022-12-08T02:26:47;99770.31;;;2.62;81.65
75231;BME280;63814;50.118;8.714;2022-12-08T02:29:51;99769.44;;;2.61;81.14
75231;BME280;63814;50.118;8.714;2022-12-08T02:32:41;99766.97;;;2.58;81.85
75231;BME280;63814;50.118;8.714;2022-12-08T02:35:15;99757.41;;;2.60;81.63
75231;BME280;63814;50.118;8.714;2022-12-08T02:37:50;99748.94;;;2.55;81.80
75231;BME280;63814;50.118;8.714;2022-12-08T02:40:21;99763.13;;;2.70;82.06
75231;BME280;63814;50.118;8.714;2022-12-08T02:42:54;99757.22;;;2.66;81.53
75231;BME280;63814;50.118;8.714;2022-12-08T02:45:25;99762.78;;;2.54;82.05
75231;BME280;63814;50.118;8.714;2022-12-08T02:47:57;99757.09;;;2.42;82.42
75231;BME280;63814;50.118;8.714;2022-12-08T02:50:25;99759.13;;;2.33;82.80
75231;BME280;63814;50.118;8.714;2022-12-08T02:52:52;99749.56;;;2.35;82.76
75231;BME280;63814;50.118;8.714;2022-12-08T02:55:25;99751.38;;;2.33;82.59
75231;BME280;63814;50.118;8.714;2022-12-08T03:00:57;99756.44;;;2.36;82.85
75231;BME280;63814;50.118;8.714;2022-12-08T03:03:30;99747.59;;;2.43;82.43
75231;BME280;63814;50.118;8.714;2022-12-08T03:06:11;99751.22;;;2.37;82.43
75231;BME280;63814;50.118;8.714;2022-12-08T03:08:44;99748.66;;;2.36;82.36
75231;BME280;63814;50.118;8.714;2022-12-08T03:11:20;99740.75;;;2.40;82.41
75231;BME280;63814;50.118;8.714;2022-12-08T03:13:51;99745.19;;;2.37;82.15
75231;BME280;63814;50.118;8.714;2022-12-08T03:16:24;99744.25;;;2.39;82.16
75231;BME280;63814;50.118;8.714;2022-12-08T03:18:55;99726.28;;;2.35;82.31
75231;BME280;63814;50.118;8.714;2022-12-08T03:21:24;99733.81;;;2.42;82.05
75231;BME280;63814;50.118;8.714;2022-12-08T03:23:52;99724.38;;;2.41;82.13
75231;BME280;63814;50.118;8.714;2022-12-08T03:26:26;99727.16;;;2.35;82.06
75231;BME280;63814;50.118;8.714;2022-12-08T03:28:55;99728.03;;;2.34;82.39
75231;BME280;63814;50.118;8.714;2022-12-08T03:31:24;99717.53;;;2.39;82.18
75231;BME280;63814;50.118;8.714;2022-12-08T03:33:53;99681.19;;;2.15;82.30
75231;BME280;63814;50.118;8.714;2022-12-08T03:36:23;99710.56;;;2.41;82.07
75231;BME280;63814;50.118;8.714;2022-12-08T03:38:52;99652.19;;;2.05;81.95
75231;BME280;63814;50.118;8.714;2022-12-08T03:41:21;99709.81;;;2.37;82.44
75231;BME280;63814;50.118;8.714;2022-12-08T03:43:50;99691.41;;;2.20;82.26
75231;BME280;63814;50.118;8.714;2022-12-08T03:46:17;99704.78;;;2.33;82.62
75231;BME280;63814;50.118;8.714;2022-12-08T03:48:45;99709.72;;;2.40;82.19
75231;BME280;63814;50.118;8.714;2022-12-08T03:51:12;99703.69;;;2.40;82.36
75231;BME280;63814;50.118;8.714;2022-12-08T03:53:40;99708.88;;;2.40;82.32
75231;BME280;63814;50.118;8.714;2022-12-08T03:56:14;99693.34;;;2.40;82.47
75231;BME280;63814;50.118;8.714;2022-12-08T03:58:41;99698.53;;;2.40;82.15
75231;BME280;63814;50.118;8.714;2022-12-08T04:01:08;99695.03;;;2.41;82.15
75231;BME280;63814;50.118;8.714;2022-12-08T04:03:34;99685.28;;;2.22;82.98
75231;BME280;63814;50.118;8.714;2022-12-08T04:06:01;99694.25;;;2.39;82.63
75231;BME280;63814;50.118;8.714;2022-12-08T04:08:27;99699.22;;;2.45;82.12
75231;BME280;63814;50.118;8.714;2022-12-08T04:10:55;99691.75;;;2.36;82.72
75231;BME280;63814;50.118;8.714;2022-12-08T04:13:22;99701.63;;;2.24;82.54
75231;BME280;63814;50.118;8.714;2022-12-08T04:15:48;99688.88;;;2.18;83.13
75231;BME280;63814;50.118;8.714;2022-12-08T04:18:15;99694.78;;;2.22;82.99
75231;BME280;63814;50.118;8.714;2022-12-08T04:20:43;99691.53;;;2.15;83.33
75231;BME280;63814;50.118;8.714;2022-12-08T04:23:10;99691.16;;;2.27;83.06
75231;BME280;63814;50.118;8.714;2022-12-08T04:25:37;99664.97;;;2.10;83.00
75231;BME280;63814;50.118;8.714;2022-12-08T04:28:05;99684.31;;;2.25;83.18
75231;BME280;63814;50.118;8.714;2022-12-08T04:30:32;99687.00;;;2.23;83.14
75231;BME280;63814;50.118;8.714;2022-12-08T04:32:59;99682.66;;;2.24;83.68
75231;BME280;63814;50.118;8.714;2022-12-08T04:35:27;99685.66;;;2.37;83.24
75231;BME280;63814;50.118;8.714;2022-12-08T04:37:53;99678.78;;;2.37;82.79
75231;BME280;63814;50.118;8.714;2022-12-08T04:40:20;99681.50;;;2.33;83.23
75231;BME280;63814;50.118;8.714;2022-12-08T04:42:46;99668.53;;;2.34;83.38
75231;BME280;63814;50.118;8.714;2022-12-08T04:45:14;99675.28;;;2.38;83.17
75231;BME280;63814;50.118;8.714;2022-12-08T04:47:41;99670.59;;;2.50;83.12
75231;BME280;63814;50.118;8.714;2022-12-08T04:50:08;99674.03;;;2.50;82.80
75231;BME280;63814;50.118;8.714;2022-12-08T04:52:35;99664.84;;;2.41;82.91
75231;BME280;63814;50.118;8.714;2022-12-08T04:55:02;99658.69;;;2.44;82.84
75231;BME280;63814;50.118;8.714;2022-12-08T04:57:29;99673.56;;;2.39;82.89
75231;BME280;63814;50.118;8.714;2022-12-08T04:59:55;99658.03;;;2.39;82.89
75231;BME280;63814;50.118;8.714;2022-12-08T05:02:23;99663.03;;;2.43;83.29
75231;BME280;63814;50.118;8.714;2022-12-08T05:04:50;99664.41;;;2.54;82.99
75231;BME280;63814;50.118;8.714;2022-12-08T05:07:16;99664.88;;;2.40;82.73
75231;BME280;63814;50.118;8.714;2022-12-08T05:09:43;99649.44;;;2.37;83.24
75231;BME280;63814;50.118;8.714;2022-12-08T05:12:10;99651.03;;;2.41;83.47
75231;BME280;63814;50.118;8.714;2022-12-08T05:14:36;99657.31;;;2.34;83.33
75231;BME280;63814;50.118;8.714;2022-12-08T05:17:03;99652.25;;;2.30;83.68
75231;BME280;63814;50.118;8.714;2022-12-08T05:19:31;99651.44;;;2.28;83.90
75231;BME280;63814;50.118;8.714;2022-12-08T05:21:57;99655.63;;;2.33;83.64
75231;BME280;63814;50.118;8.714;2022-12-08T05:24:24;99646.47;;;2.22;84.30
75231;BME280;63814;50.118;8.714;2022-12-08T05:26:50;99654.03;;;2.28;83.87
75231;BME280;63814;50.118;8.714;2022-12-08T05:29:17;99649.00;;;2.24;83.79
75231;BME280;63814;50.118;8.714;2022-12-08T05:31:43;99640.94;;;2.33;83.48
75231;BME280;63814;50.118;8.714;2022-12-08T05:34:10;99644.44;;;2.32;84.26
75231;BME280;63814;50.118;8.714;2022-12-08T05:36:37;99640.69;;;2.41;84.13
75231;BME280;63814;50.118;8.714;2022-12-08T05:39:04;99636.47;;;2.38;83.19
75231;BME280;63814;50.118;8.714;2022-12-08T05:41:31;99645.31;;;2.31;83.36
75231;BME280;63814;50.118;8.714;2022-12-08T05:43:57;99640.00;;;2.36;84.00
75231;BME280;63814;50.118;8.714;2022-12-08T05:46:24;99643.47;;;2.35;83.94
75231;BME280;63814;50.118;8.714;2022-12-08T05:48:50;99634.94;;;2.33;83.47
75231;BME280;63814;50.118;8.714;2022-12-08T05:51:18;99628.75;;;2.37;83.80
75231;BME280;63814;50.118;8.714;2022-12-08T05:53:47;99637.41;;;2.36;83.84
75231;BME280;63814;50.118;8.714;2022-12-08T05:56:14;99629.06;;;2.27;83.68
75231;BME280;63814;50.118;8.714;2022-12-08T05:58:40;99638.44;;;2.31;84.04
75231;BME280;63814;50.118;8.714;2022-12-08T06:01:17;99636.56;;;2.35;84.20
75231;BME280;63814;50.118;8.714;2022-12-08T06:03:44;99632.19;;;2.37;83.79
75231;BME280;63814;50.118;8.714;2022-12-08T06:06:10;99634.78;;;2.37;84.47
75231;BME280;63814;50.118;8.714;2022-12-08T06:08:37;99636.41;;;2.40;84.58
75231;BME280;63814;50.118;8.714;2022-12-08T06:11:04;99639.22;;;2.34;84.02
75231;BME280;63814;50.118;8.714;2022-12-08T06:13:31;99630.38;;;2.39;84.20
75231;BME280;63814;50.118;8.714;2022-12-08T06:16:02;99621.09;;;2.34;83.85
75231;BME280;63814;50.118;8.714;2022-12-08T06:18:29;99621.84;;;2.63;85.42
75231;BME280;63814;50.118;8.714;2022-12-08T06:21:01;99631.31;;;2.64;83.75
75231;BME280;63814;50.118;8.714;2022-12-08T06:23:27;99631.66;;;2.78;83.56
75231;BME280;63814;50.118;8.714;2022-12-08T06:25:54;99638.16;;;2.65;82.90
75231;BME280;63814;50.118;8.714;2022-12-08T06:28:21;99637.72;;;2.53;83.52
75231;BME280;63814;50.118;8.714;2022-12-08T06:30:48;99638.09;;;2.41;84.11
75231;BME280;63814;50.118;8.714;2022-12-08T06:33:14;99636.72;;;2.30;84.68
75231;BME280;63814;50.118;8.714;2022-12-08T06:35:41;99637.56;;;2.31;85.44
75231;BME280;63814;50.118;8.714;2022-12-08T06:38:07;99636.72;;;2.30;84.65
75231;BME280;63814;50.118;8.714;2022-12-08T06:40:34;99635.31;;;2.20;85.30
75231;BME280;63814;50.118;8.714;2022-12-08T06:43:00;99636.50;;;2.37;84.68
75231;BME280;63814;50.118;8.714;2022-12-08T06:45:28;99650.53;;;2.29;85.01
75231;BME280;63814;50.118;8.714;2022-12-08T06:47:54;99644.34;;;2.35;85.64
75231;BME280;63814;50.118;8.714;2022-12-08T06:50:21;99626.28;;;2.34;84.99
75231;BME280;63814;50.118;8.714;2022-12-08T06:52:48;99634.28;;;2.26;85.01
75231;BME280;63814;50.118;8.714;2022-12-08T06:55:14;99629.06;;;2.27;85.02
75231;BME280;63814;50.118;8.714;2022-12-08T06:57:41;99623.28;;;2.19;85.33
75231;BME280;63814;50.118;8.714;2022-12-08T07:00:08;99628.34;;;2.22;85.45
75231;BME280;63814;50.118;8.714;2022-12-08T07:02:36;99637.00;;;2.21;85.17
75231;BME280;63814;50.118;8.714;2022-12-08T07:05:03;99629.41;;;2.16;85.55
75231;BME280;63814;50.118;8.714;2022-12-08T07:07:30;99630.50;;;2.09;85.38
75231;BME280;63814;50.118;8.714;2022-12-08T07:09:56;99631.94;;;2.18;85.70
75231;BME280;63814;50.118;8.714;2022-12-08T07:12:22;99642.53;;;2.10;86.32
75231;BME280;63814;50.118;8.714;2022-12-08T07:14:49;99640.97;;;2.06;85.37
75231;BME280;63814;50.118;8.714;2022-12-08T07:17:15;99633.94;;;2.10;85.57
75231;BME280;63814;50.118;8.714;2022-12-08T07:19:43;99639.16;;;2.08;85.47
75231;BME280;63814;50.118;8.714;2022-12-08T07:22:10;99638.31;;;2.08;85.25
75231;BME280;63814;50.118;8.714;2022-12-08T07:24:36;99635.03;;;2.02;85.01
75231;BME280;63814;50.118;8.714;2022-12-08T07:27:03;99636.13;;;1.95;85.45
75231;BME280;63814;50.118;8.714;2022-12-08T07:29:29;99628.31;;;1.97;85.37
75231;BME280;63814;50.118;8.714;2022-12-08T07:31:56;99630.78;;;2.01;85.71
75231;BME280;63814;50.118;8.714;2022-12-08T07:34:22;99637.81;;;1.96;85.80
75231;BME280;63814;50.118;8.714;2022-12-08T07:36:50;99633.41;;;2.00;86.26
75231;BME280;63814;50.118;8.714;2022-12-08T07:39:17;99635.38;;;1.92;86.09
75231;BME280;63814;50.118;8.714;2022-12-08T07:41:43;99633.47;;;1.97;86.09
75231;BME280;63814;50.118;8.714;2022-12-08T07:44:10;99627.38;;;1.99;86.54
75231;BME280;63814;50.118;8.714;2022-12-08T07:46:36;99629.88;;;2.02;86.36
75231;BME280;63814;50.118;8.714;2022-12-08T07:49:03;99628.22;;;2.00;85.75
75231;BME280;63814;50.118;8.714;2022-12-08T07:51:29;99506.59;;;1.20;86.15
75231;BME280;63814;50.118;8.714;2022-12-08T07:53:57;99624.63;;;2.04;86.07
75231;BME280;63814;50.118;8.714;2022-12-08T07:56:23;99630.63;;;2.06;85.89
75231;BME280;63814;50.118;8.714;2022-12-08T07:58:50;99634.00;;;2.08;85.57
75231;BME280;63814;50.118;8.714;2022-12-08T08:01:19;99632.38;;;2.04;85.72
75231;BME280;63814;50.118;8.714;2022-12-08T08:03:46;99632.66;;;1.96;85.58
75231;BME280;63814;50.118;8.714;2022-12-08T08:06:13;99634.34;;;1.97;85.50
75231;BME280;63814;50.118;8.714;2022-12-08T08:08:39;99639.69;;;1.91;86.04
75231;BME280;63814;50.118;8.714;2022-12-08T08:11:07;99648.16;;;1.96;85.89
75231;BME280;63814;50.118;8.714;2022-12-08T08:13:34;99638.59;;;1.98;86.11
75231;BME280;63814;50.118;8.714;2022-12-08T08:16:02;99637.91;;;1.93;85.93
75231;BME280;63814;50.118;8.714;2022-12-08T08:18:29;99641.19;;;1.98;85.43
75231;BME280;63814;50.118;8.714;2022-12-08T08:20:55;99631.09;;;1.90;86.29
75231;BME280;63814;50.118;8.714;2022-12-08T08:23:22;99628.72;;;1.84;86.47
75231;BME280;63814;50.118;8.714;2022-12-08T08:25:48;99645.16;;;1.82;85.64
75231;BME280;63814;50.118;8.714;2022-12-08T08:28:16;99639.84;;;1.86;86.74
75231;BME280;63814;50.118;8.714;2022-12-08T08:30:44;99587.34;;;1.56;86.15
75231;BME280;63814;50.118;8.714;2022-12-08T08:33:11;99640.38;;;1.98;86.59
75231;BME280;63814;50.118;8.714;2022-12-08T08:35:37;99639.50;;;1.97;86.18
75231;BME280;63814;50.118;8.714;2022-12-08T08:38:04;99632.44;;;2.02;85.72
75231;BME280;63814;50.118;8.714;2022-12-08T08:40:30;99638.41;;;2.04;86.06
75231;BME280;63814;50.118;8.714;2022-12-08T08:42:59;99636.78;;;2.02;85.61
75231;BME280;63814;50.118;8.714;2022-12-08T08:45:27;99627.91;;;2.09;85.24
75231;BME280;63814;50.118;8.714;2022-12-08T08:47:53;99647.13;;;2.02;85.77
75231;BME280;63814;50.118;8.714;2022-12-08T08:50:20;99639.28;;;2.05;85.61
75231;BME280;63814;50.118;8.714;2022-12-08T08:52:46;99623.66;;;2.08;85.00
75231;BME280;63814;50.118;8.714;2022-12-08T08:55:13;99635.53;;;2.14;85.14
75231;BME280;63814;50.118;8.714;2022-12-08T08:57:39;99641.63;;;2.11;85.37
75231;BME280;63814;50.118;8.714;2022-12-08T09:00:07;99633.84;;;2.13;85.56
75231;BME280;63814;50.118;8.714;2022-12-08T09:02:36;99630.28;;;2.17;85.49
75231;BME280;63814;50.118;8.714;2022-12-08T09:05:04;99625.28;;;2.38;84.63
75231;BME280;63814;50.118;8.714;2022-12-08T09:07:31;99632.81;;;2.44;84.21
75231;BME280;63814;50.118;8.714;2022-12-08T09:09:57;99622.38;;;2.47;83.77
75231;BME280;63814;50.118;8.714;2022-12-08T09:12:24;99620.56;;;2.49;83.81
75231;BME280;63814;50.118;8.714;2022-12-08T09:14:50;99617.53;;;2.63;83.36
75231;BME280;63814;50.118;8.714;2022-12-08T09:17:17;99631.47;;;2.59;83.02
75231;BME280;63814;50.118;8.714;2022-12-08T09:19:45;99619.38;;;2.59;83.25
75231;BME280;63814;50.118;8.714;2022-12-08T09:22:13;99623.44;;;2.67;83.21
75231;BME280;63814;50.118;8.714;2022-12-08T09:24:40;99628.50;;;2.70;82.90
75231;BME280;63814;50.118;8.714;2022-12-08T09:27:07;99623.44;;;2.67;82.96
75231;BME280;63814;50.118;8.714;2022-12-08T09:29:33;99628.28;;;2.76;82.56
75231;BME280;63814;50.118;8.714;2022-12-08T09:32:00;99626.63;;;2.75;82.74
75231;BME280;63814;50.118;8.714;2022-12-08T09:34:26;99629.44;;;2.93;82.63
75231;BME280;63814;50.118;8.714;2022-12-08T09:36:54;99624.38;;;2.90;82.72
75231;BME280;63814;50.118;8.714;2022-12-08T09:39:21;99626.81;;;2.94;82.27
75231;BME280;63814;50.118;8.714;2022-12-08T09:41:48;99621.88;;;2.86;83.27
75231;BME280;63814;50.118;8.714;2022-12-08T09:44:33;99625.94;;;2.94;81.57
75231;BME280;63814;50.118;8.714;2022-12-08T09:47:07;99603.75;;;2.86;81.67
75231;BME280;63814;50.118;8.714;2022-12-08T09:49:40;99547.03;;;2.55;81.57
75231;BME280;63814;50.118;8.714;2022-12-08T09:52:18;99622.41;;;2.96;81.63
75231;BME280;63814;50.118;8.714;2022-12-08T09:54:46;99610.25;;;2.98;80.72
75231;BME280;63814;50.118;8.714;2022-12-08T09:57:16;99607.69;;;2.98;81.06
75231;BME280;63814;50.118;8.714;2022-12-08T09:59:49;99599.38;;;3.12;80.80
75231;BME280;63814;50.118;8.714;2022-12-08T10:02:21;99579.91;;;3.02;80.64
75231;BME280;63814;50.118;8.714;2022-12-08T10:04:48;99589.56;;;3.21;80.30
75231;BME280;63814;50.118;8.714;2022-12-08T10:07:20;99592.63;;;3.32;80.14
75231;BME280;63814;50.118;8.714;2022-12-08T10:09:51;99596.00;;;3.10;79.74
75231;BME280;63814;50.118;8.714;2022-12-08T10:12:27;99590.44;;;3.21;79.37
75231;BME280;63814;50.118;8.714;2022-12-08T10:15:02;99563.50;;;3.25;79.41
75231;BME280;63814;50.118;8.714;2022-12-08T10:17:40;99594.16;;;3.60;78.12
75231;BME280;63814;50.118;8.714;2022-12-08T10:20:12;99579.31;;;3.41;79.50
75231;BME280;63814;50.118;8.714;2022-12-08T10:22:42;99578.84;;;3.54;78.39
75231;BME280;63814;50.118;8.714;2022-12-08T10:25:15;99578.88;;;3.52;77.88
75231;BME280;63814;50.118;8.714;2022-12-08T10:27:42;99578.53;;;3.39;78.36
75231;BME280;63814;50.118;8.714;2022-12-08T10:30:10;99563.72;;;3.19;79.46
75231;BME280;63814;50.118;8.714;2022-12-08T10:32:38;99551.13;;;3.10;80.18
75231;BME280;63814;50.118;8.714;2022-12-08T10:35:07;99576.19;;;3.09;79.82
75231;BME280;63814;50.118;8.714;2022-12-08T10:37:35;99571.78;;;3.11;80.72
75231;BME280;63814;50.118;8.714;2022-12-08T10:40:09;99565.47;;;3.19;80.62
75231;BME280;63814;50.118;8.714;2022-12-08T10:42:38;99557.47;;;3.25;79.31
75231;BME280;63814;50.118;8.714;2022-12-08T10:45:24;99567.84;;;3.25;79.70
75231;BME280;63814;50.118;8.714;2022-12-08T10:47:58;99563.31;;;3.30;79.37
75231;BME280;63814;50.118;8.714;2022-12-08T10:50:31;99567.13;;;3.44;79.05
75231;BME280;63814;50.118;8.714;2022-12-08T10:52:59;99556.75;;;3.44;79.09
75231;BME280;63814;50.118;8.714;2022-12-08T10:55:28;99546.88;;;3.31;78.10
75231;BME280;63814;50.118;8.714;2022-12-08T10:58:04;99546.16;;;3.50;77.57
75231;BME280;63814;50.118;8.714;2022-12-08T11:00:31;99546.59;;;3.61;78.06
75231;BME280;63814;50.118;8.714;2022-12-08T11:02:59;99543.38;;;3.77;78.02
75231;BME280;63814;50.118;8.714;2022-12-08T11:05:29;99537.06;;;3.82;76.89
75231;BME280;63814;50.118;8.714;2022-12-08T11:07:56;99541.06;;;4.12;76.58
75231;BME280;63814;50.118;8.714;2022-12-08T11:10:32;99546.38;;;4.30;75.82
75231;BME280;63814;50.118;8.714;2022-12-08T11:13:01;99515.06;;;5.13;72.03
75231;BME280;63814;50.118;8.714;2022-12-08T11:15:34;99529.06;;;6.71;67.98
75231;BME280;63814;50.118;8.714;2022-12-08T11:18:07;99528.34;;;7.01;66.01
75231;BME280;63814;50.118;8.714;2022-12-08T11:20:38;99520.81;;;6.45;66.35
75231;BME280;63814;50.118;8.714;2022-12-08T11:23:18;99527.00;;;6.26;67.32
75231;BME280;63814;50.118;8.714;2022-12-08T11:25:46;99518.22;;;6.45;66.40
75231;BME280;63814;50.118;8.714;2022-12-08T11:28:13;99527.13;;;6.23;67.76
75231;BME280;63814;50.118;8.714;2022-12-08T11:30:43;99518.28;;;6.61;65.20
75231;BME280;63814;50.118;8.714;2022-12-08T11:33:15;99505.94;;;6.96;63.77
75231;BME280;63814;50.118;8.714;2022-12-08T11:35:44;99517.88;;;6.68;65.59
75231;BME280;63814;50.118;8.714;2022-12-08T11:38:14;99497.50;;;6.59;65.83
75231;BME280;63814;50.118;8.714;2022-12-08T11:40:42;99504.50;;;5.53;68.66
75231;BME280;63814;50.118;8.714;2022-12-08T11:43:15;99510.50;;;5.18;69.70
75231;BME280;63814;50.118;8.714;2022-12-08T11:45:43;99506.97;;;4.81;71.36
75231;BME280;63814;50.118;8.714;2022-12-08T11:48:13;99511.22;;;4.62;72.70
75231;BME280;63814;50.118;8.714;2022-12-08T11:50:47;99511.44;;;4.58;72.56
75231;BME280;63814;50.118;8.714;2022-12-08T11:53:22;99508.25;;;4.32;73.57
75231;BME280;63814;50.118;8.714;2022-12-08T11:55:54;99505.66;;;4.32;72.99
75231;BME280;63814;50.118;8.714;2022-12-08T11:58:26;99503.91;;;4.52;72.30
75231;BME280;63814;50.118;8.714;2022-12-08T12:00:57;99497.28;;;4.84;70.24
75231;BME280;63814;50.118;8.714;2022-12-08T12:03:27;99493.94;;;5.38;69.93
75231;BME280;63814;50.118;8.714;2022-12-08T12:06:16;99481.06;;;6.75;65.48
75231;BME280;63814;50.118;8.714;2022-12-08T12:08:52;99485.09;;;7.29;61.74
75231;BME280;63814;50.118;8.714;2022-12-08T12:11:27;99476.88;;;7.04;62.73
75231;BME280;63814;50.118;8.714;2022-12-08T12:14:27;99490.81;;;6.87;63.04
75231;BME280;63814;50.118;8.714;2022-12-08T12:17:01;99478.69;;;5.67;66.67
75231;BME280;63814;50.118;8.714;2022-12-08T12:19:31;99486.84;;;5.59;67.79
75231;BME280;63814;50.118;8.714;2022-12-08T12:22:05;99487.00;;;5.56;67.01
75231;BME280;63814;50.118;8.714;2022-12-08T12:24:36;99497.09;;;5.80;67.63
75231;BME280;63814;50.118;8.714;2022-12-08T12:27:07;99475.31;;;5.65;67.30
75231;BME280;63814;50.118;8.714;2022-12-08T12:29:49;99471.88;;;7.32;63.07
75231;BME280;63814;50.118;8.714;2022-12-08T12:32:19;99454.59;;;8.65;58.83
75231;BME280;63814;50.118;8.714;2022-12-08T12:34:48;99451.06;;;9.35;56.15
75231;BME280;63814;50.118;8.714;2022-12-08T12:37:18;99449.16;;;9.24;56.60
75231;BME280;63814;50.118;8.714;2022-12-08T12:39:48;99457.38;;;8.62;57.57
75231;BME280;63814;50.118;8.714;2022-12-08T12:42:37;99451.22;;;8.04;59.14
75231;BME280;63814;50.118;8.714;2022-12-08T12:45:25;99455.63;;;7.43;60.69
75231;BME280;63814;50.118;8.714;2022-12-08T12:48:13;99440.00;;;7.57;60.73
75231;BME280;63814;50.118;8.714;2022-12-08T12:50:45;99460.91;;;8.17;59.86
75231;BME280;63814;50.118;8.714;2022-12-08T12:53:47;99455.59;;;7.59;60.03
75231;BME280;63814;50.118;8.714;2022-12-08T12:56:47;99453.59;;;6.85;63.02
75231;BME280;63814;50.118;8.714;2022-12-08T12:59:39;99449.44;;;7.29;62.91
75231;BME280;63814;50.118;8.714;2022-12-08T13:02:21;99444.16;;;8.65;57.77
75231;BME280;63814;50.118;8.714;2022-12-08T13:05:01;99434.00;;;10.85;52.00
75231;BME280;63814;50.118;8.714;2022-12-08T13:07:30;99431.34;;;9.83;53.07
75231;BME280;63814;50.118;8.714;2022-12-08T13:10:02;99429.97;;;9.64;53.14
75231;BME280;63814;50.118;8.714;2022-12-08T13:12:29;99438.88;;;8.94;55.79
75231;BME280;63814;50.118;8.714;2022-12-08T13:15:03;99438.34;;;8.45;57.20
75231;BME280;63814;50.118;8.714;2022-12-08T13:17:33;99446.47;;;8.26;57.53
75231;BME280;63814;50.118;8.714;2022-12-08T13:20:05;99447.59;;;7.62;58.76
75231;BME280;63814;50.118;8.714;2022-12-08T13:23:00;99434.31;;;7.50;59.39
75231;BME280;63814;50.118;8.714;2022-12-08T13:25:48;99434.63;;;7.14;60.06
75231;BME280;63814;50.118;8.714;2022-12-08T13:28:19;99436.00;;;6.73;61.60